createdAt,value
2023-05-15T00:00:03.893Z,99.99
2023-05-15T00:01:04.164Z,99.99
2023-05-15T00:02:04.051Z,99.99
2023-05-15T00:03:03.824Z,99.99
2023-05-15T00:04:03.863Z,99.99
2023-05-15T00:05:03.701Z,99.99
2023-05-15T00:06:03.627Z,99.99
2023-05-15T00:07:03.637Z,99.99
2023-05-15T00:08:03.680Z,99.99
2023-05-15T00:09:03.504Z,99.99
2023-05-15T00:10:03.695Z,99.99
2023-05-15T00:11:03.421Z,99.99
2023-05-15T00:12:03.359Z,99.99
2023-05-15T00:13:03.474Z,99.99
2023-05-15T00:14:03.522Z,99.99
2023-05-15T00:15:03.236Z,99.99
2023-05-15T00:16:03.249Z,99.99
2023-05-15T00:17:03.239Z,99.99
2023-05-15T00:18:03.301Z,99.99
2023-05-15T00:19:03.099Z,99.99
2023-05-15T00:20:03.060Z,99.99
2023-05-15T00:21:02.971Z,99.99
2023-05-15T00:22:03.070Z,99.99
2023-05-15T00:23:02.894Z,99.99
2023-05-15T00:24:02.878Z,99.99
2023-05-15T00:25:02.828Z,99.99
2023-05-15T00:26:02.902Z,99.99
2023-05-15T00:27:02.708Z,99.99
2023-05-15T00:28:02.722Z,99.99
2023-05-15T00:29:02.616Z,99.99
2023-05-15T00:30:02.823Z,99.99
2023-05-15T00:31:02.823Z,99.99
2023-05-15T00:32:02.566Z,99.99
2023-05-15T00:33:02.456Z,99.99
2023-05-15T00:34:02.386Z,99.99
2023-05-15T00:35:02.360Z,99.99
2023-05-15T00:36:02.563Z,99.99
2023-05-15T00:37:02.260Z,99.99
2023-05-15T00:38:02.570Z,99.99
2023-05-15T00:39:02.171Z,99.99
2023-05-15T00:40:02.127Z,99.99
2023-05-15T00:41:02.086Z,99.99
2023-05-15T00:42:02.439Z,99.99
2023-05-15T00:43:01.993Z,99.99
2023-05-15T00:44:01.982Z,99.99
2023-05-15T00:45:02.031Z,99.99
2023-05-15T00:46:01.909Z,99.99
2023-05-15T00:47:02.143Z,99.99
2023-05-15T00:48:01.939Z,99.99
2023-05-15T00:49:01.881Z,99.99
2023-05-15T00:50:01.708Z,99.99
2023-05-15T00:51:01.643Z,99.99
2023-05-15T00:52:02.439Z,99.99
2023-05-15T00:53:01.873Z,99.99
2023-05-15T00:54:01.572Z,99.99
2023-05-15T00:55:01.683Z,99.99
2023-05-15T00:56:01.548Z,99.99
2023-05-15T00:57:01.372Z,99.99
2023-05-15T00:58:01.500Z,99.99
2023-05-15T00:59:01.280Z,99.99
2023-05-15T01:00:01.322Z,99.99
2023-05-15T01:01:01.244Z,99.99
2023-05-15T01:02:01.490Z,99.99
2023-05-15T01:03:01.229Z,99.99
2023-05-15T01:04:01.133Z,99.99
2023-05-15T01:05:01.019Z,99.99
2023-05-15T01:06:01.350Z,99.99
2023-05-15T01:07:00.948Z,99.99
2023-05-15T01:08:00.881Z,99.99
2023-05-15T01:09:00.850Z,99.99
2023-05-15T01:10:01.021Z,99.99
2023-05-15T01:11:00.756Z,99.99
2023-05-15T01:12:00.788Z,99.99
2023-05-15T01:13:00.656Z,99.99
2023-05-15T01:14:00.629Z,99.99
2023-05-15T01:15:00.810Z,99.99
2023-05-15T01:16:00.531Z,99.99
2023-05-15T01:17:00.861Z,99.99
2023-05-15T01:18:00.553Z,99.99
2023-05-15T01:19:00.447Z,99.99
2023-05-15T01:20:00.461Z,99.99
2023-05-15T01:21:00.438Z,99.99
2023-05-15T01:22:00.265Z,99.99
2023-05-15T01:23:00.459Z,99.99
2023-05-15T01:24:00.208Z,99.99
2023-05-15T01:25:00.166Z,99.99
2023-05-15T01:26:00.328Z,99.99
2023-05-15T01:27:00.280Z,99.99
2023-05-15T01:27:59.996Z,99.99
2023-05-15T01:29:00.127Z,99.99
2023-05-15T01:30:00.037Z,99.99
2023-05-15T01:31:00.123Z,99.99
2023-05-15T01:31:59.879Z,99.99
2023-05-15T01:32:59.922Z,99.99
2023-05-15T01:33:59.727Z,99.99
2023-05-15T01:34:59.719Z,99.99
2023-05-15T01:35:59.754Z,99.99
2023-05-15T01:36:59.790Z,99.99
2023-05-15T01:37:59.741Z,99.99
2023-05-15T01:38:59.508Z,99.99
2023-05-15T01:39:59.558Z,99.99
2023-05-15T01:40:59.418Z,99.99
2023-05-15T01:41:59.371Z,99.99
2023-05-15T01:42:59.572Z,99.99
2023-05-15T01:43:59.285Z,99.99
2023-05-15T01:44:59.590Z,99.99
2023-05-15T01:45:59.220Z,99.99
2023-05-15T01:46:59.151Z,99.99
2023-05-15T01:47:59.159Z,99.99
2023-05-15T01:48:59.204Z,99.99
2023-05-15T01:49:59.262Z,99.99
2023-05-15T01:50:59.021Z,99.99
2023-05-15T01:51:58.924Z,99.99
2023-05-15T01:52:58.889Z,99.99
2023-05-15T01:53:59.040Z,99.99
2023-05-15T01:54:58.793Z,99.99
2023-05-15T01:55:58.859Z,99.99
2023-05-15T01:56:58.709Z,99.99
2023-05-15T01:57:58.865Z,99.99
2023-05-15T01:58:58.623Z,99.99
2023-05-15T01:59:58.675Z,99.99
2023-05-15T02:00:58.533Z,99.99
2023-05-15T02:01:58.942Z,99.99
2023-05-15T02:02:58.511Z,99.99
2023-05-15T02:03:58.532Z,99.99
2023-05-15T02:04:58.348Z,99.99
2023-05-15T02:05:58.508Z,99.99
2023-05-15T02:06:58.262Z,99.99
2023-05-15T02:07:58.532Z,99.99
2023-05-15T02:08:58.376Z,99.99
2023-05-15T02:09:58.131Z,99.99
2023-05-15T02:10:58.141Z,99.99
2023-05-15T02:11:58.039Z,99.99
2023-05-15T02:12:58.152Z,99.99
2023-05-15T02:13:58.032Z,99.99
2023-05-15T02:14:57.950Z,99.99
2023-05-15T02:15:57.866Z,99.99
2023-05-15T02:16:57.990Z,99.99
2023-05-15T02:17:57.793Z,99.99
2023-05-15T02:18:57.821Z,99.99
2023-05-15T02:19:57.844Z,99.99
2023-05-15T02:20:57.636Z,99.99
2023-05-15T02:21:57.820Z,99.99
2023-05-15T02:22:57.559Z,99.99
2023-05-15T02:23:57.626Z,99.99
2023-05-15T02:24:57.473Z,99.99
2023-05-15T02:25:57.641Z,99.99
2023-05-15T02:26:57.499Z,99.99
2023-05-15T02:27:57.454Z,99.99
2023-05-15T02:28:57.314Z,99.99
2023-05-15T02:29:57.463Z,99.99
2023-05-15T02:30:57.252Z,99.99
2023-05-15T02:31:57.186Z,99.99
2023-05-15T02:32:57.195Z,99.99
2023-05-15T02:33:57.288Z,99.99
2023-05-15T02:34:57.098Z,99.99
2023-05-15T02:35:57.125Z,99.99
2023-05-15T02:36:57.020Z,99.99
2023-05-15T02:37:56.884Z,99.99
2023-05-15T02:38:56.976Z,99.99
2023-05-15T02:39:56.974Z,99.99
2023-05-15T02:40:56.763Z,99.99
2023-05-15T02:41:56.945Z,99.99
2023-05-15T02:42:56.709Z,99.99
2023-05-15T02:43:56.771Z,99.99
2023-05-15T02:44:56.567Z,99.99
2023-05-15T02:45:56.806Z,99.99
2023-05-15T02:46:56.736Z,99.99
2023-05-15T02:47:56.621Z,99.99
2023-05-15T02:48:56.404Z,99.99
2023-05-15T02:49:56.580Z,99.99
2023-05-15T02:50:56.316Z,99.99
2023-05-15T02:51:56.393Z,99.99
2023-05-15T02:52:56.244Z,99.99
2023-05-15T02:53:56.409Z,99.99
2023-05-15T02:54:56.117Z,99.99
2023-05-15T02:55:56.224Z,99.99
2023-05-15T02:56:56.034Z,99.99
2023-05-15T02:57:56.239Z,99.99
2023-05-15T02:58:55.949Z,99.99
2023-05-15T02:59:55.900Z,99.99
2023-05-15T03:00:55.878Z,99.99
2023-05-15T03:01:56.061Z,99.99
2023-05-15T03:02:55.806Z,99.99
2023-05-15T03:03:55.925Z,99.99
2023-05-15T03:04:55.709Z,99.99
2023-05-15T03:05:55.654Z,99.99
2023-05-15T03:06:55.890Z,99.99
2023-05-15T03:07:55.558Z,99.99
2023-05-15T03:08:55.755Z,99.99
2023-05-15T03:09:55.451Z,99.99
2023-05-15T03:10:55.431Z,99.99
2023-05-15T03:11:55.387Z,99.99
2023-05-15T03:12:55.342Z,99.99
2023-05-15T03:13:55.544Z,99.99
2023-05-15T03:14:55.297Z,99.99
2023-05-15T03:15:55.602Z,99.99
2023-05-15T03:16:55.431Z,99.99
2023-05-15T03:17:55.126Z,99.99
2023-05-15T03:18:55.228Z,99.99
2023-05-15T03:19:55.023Z,99.99
2023-05-15T03:20:55.180Z,99.99
2023-05-15T03:21:54.923Z,99.99
2023-05-15T03:22:54.886Z,99.99
2023-05-15T03:23:55.162Z,99.99
2023-05-15T03:24:54.793Z,99.99
2023-05-15T03:25:55.009Z,99.99
2023-05-15T03:26:54.703Z,99.99
2023-05-15T03:27:54.662Z,99.99
2023-05-15T03:28:54.650Z,99.99
2023-05-15T03:29:54.620Z,99.99
2023-05-15T03:30:54.547Z,99.99
2023-05-15T03:31:54.867Z,99.99
2023-05-15T03:32:54.496Z,99.99
2023-05-15T03:33:54.387Z,99.99
2023-05-15T03:34:55.501Z,99.99
2023-05-15T03:35:54.468Z,99.99
2023-05-15T03:36:54.685Z,99.99
2023-05-15T03:37:54.216Z,99.99
2023-05-15T03:38:54.214Z,99.99
2023-05-15T03:39:54.121Z,99.99
2023-05-15T03:40:54.299Z,99.99
2023-05-15T03:41:54.082Z,99.99
2023-05-15T03:42:54.103Z,99.99
2023-05-15T03:43:53.945Z,99.99
2023-05-15T03:44:54.181Z,99.99
2023-05-15T03:45:53.875Z,99.99
2023-05-15T03:46:54.017Z,99.99
2023-05-15T03:47:53.867Z,99.99
2023-05-15T03:48:53.945Z,99.99
2023-05-15T03:49:53.673Z,99.99
2023-05-15T03:50:53.802Z,99.99
2023-05-15T03:51:53.788Z,99.99
2023-05-15T03:52:53.540Z,99.99
2023-05-15T03:53:53.577Z,99.99
2023-05-15T03:54:53.493Z,99.99
2023-05-15T03:55:53.401Z,99.99
2023-05-15T03:56:53.392Z,99.99
2023-05-15T03:57:53.400Z,99.99
2023-05-15T03:58:53.308Z,99.99
2023-05-15T03:59:53.563Z,99.99
2023-05-15T04:00:53.235Z,99.99
2023-05-15T04:02:04.176Z,99.99
2023-05-15T04:02:53.303Z,99.99
2023-05-15T04:03:53.090Z,99.99
2023-05-15T04:04:53.275Z,99.99
2023-05-15T04:05:53.157Z,99.99
2023-05-15T04:06:53.058Z,99.99
2023-05-15T04:07:52.878Z,99.99
2023-05-15T04:08:53.066Z,99.99
2023-05-15T04:09:52.818Z,99.99
2023-05-15T04:10:52.886Z,99.99
2023-05-15T04:11:52.799Z,99.99
2023-05-15T04:12:52.674Z,99.99
2023-05-15T04:13:52.613Z,99.99
2023-05-15T04:14:52.705Z,99.99
2023-05-15T04:15:52.517Z,99.99
2023-05-15T04:16:52.769Z,99.99
2023-05-15T04:17:52.698Z,99.99
2023-05-15T04:18:52.404Z,99.99
2023-05-15T04:19:52.550Z,99.99
2023-05-15T04:20:52.336Z,99.99
2023-05-15T04:21:52.352Z,99.99
2023-05-15T04:22:52.213Z,99.99
2023-05-15T04:23:52.162Z,99.99
2023-05-15T04:24:52.115Z,99.99
2023-05-15T04:25:52.372Z,99.99
2023-05-15T04:26:52.103Z,99.99
2023-05-15T04:27:52.201Z,99.99
2023-05-15T04:29:02.941Z,99.99
2023-05-15T04:29:51.895Z,99.99
2023-05-15T04:30:52.016Z,99.99
2023-05-15T04:31:51.903Z,99.99
2023-05-15T04:32:52.120Z,99.99
2023-05-15T04:33:51.869Z,99.99
2023-05-15T04:34:52.030Z,99.99
2023-05-15T04:35:51.636Z,99.99
2023-05-15T04:36:51.850Z,99.99
2023-05-15T04:37:51.554Z,99.99
2023-05-15T04:38:51.897Z,99.99
2023-05-15T04:39:51.460Z,99.99
2023-05-15T04:40:51.470Z,99.99
2023-05-15T04:41:51.386Z,99.99
2023-05-15T04:42:51.477Z,99.99
2023-05-15T04:43:51.277Z,99.99
2023-05-15T04:44:51.488Z,99.99
2023-05-15T04:45:51.234Z,99.99
2023-05-15T04:46:51.139Z,99.99
2023-05-15T04:47:51.401Z,99.99
2023-05-15T04:48:51.053Z,99.99
2023-05-15T04:49:51.121Z,99.99
2023-05-15T04:50:51.184Z,99.99
2023-05-15T04:51:51.015Z,99.99
2023-05-15T04:52:50.883Z,99.99
2023-05-15T04:53:50.953Z,99.99
2023-05-15T04:54:50.788Z,99.99
2023-05-15T04:55:50.953Z,99.99
2023-05-15T04:56:50.705Z,99.99
2023-05-15T04:57:51.025Z,99.99
2023-05-15T04:58:50.780Z,99.99
2023-05-15T04:59:50.588Z,99.99
2023-05-15T05:00:50.799Z,99.99
2023-05-15T05:01:50.554Z,99.99
2023-05-15T05:02:50.642Z,99.99
2023-05-15T05:03:50.463Z,99.99
2023-05-15T05:04:50.693Z,99.99
2023-05-15T05:05:50.322Z,99.99
2023-05-15T05:06:50.832Z,99.99
2023-05-15T05:07:50.213Z,99.99
2023-05-15T05:08:50.178Z,99.99
2023-05-15T05:09:50.147Z,99.99
2023-05-15T05:10:50.251Z,99.99
2023-05-15T05:11:50.047Z,99.99
2023-05-15T05:12:50.270Z,99.99
2023-05-15T05:13:49.972Z,99.99
2023-05-15T05:14:50.331Z,99.99
2023-05-15T05:15:50.129Z,99.99
2023-05-15T05:16:49.815Z,99.99
2023-05-15T05:17:49.985Z,99.99
2023-05-15T05:18:49.773Z,99.99
2023-05-15T05:19:49.689Z,99.99
2023-05-15T05:20:49.658Z,99.99
2023-05-15T05:23:22.287Z,99.99
2023-05-15T05:24:21.835Z,99.99
2023-05-15T05:25:22.175Z,99.99
2023-05-15T05:26:21.744Z,99.99
2023-05-15T05:27:22.117Z,99.99
2023-05-15T05:28:21.666Z,99.99
2023-05-15T05:29:21.730Z,99.99
2023-05-15T05:30:21.624Z,99.99
2023-05-15T05:31:21.567Z,99.99
2023-05-15T05:32:21.975Z,99.99
2023-05-15T05:33:21.447Z,99.99
2023-05-15T05:34:21.555Z,99.99
2023-05-15T05:35:21.451Z,99.99
2023-05-15T05:36:21.567Z,99.99
2023-05-15T05:37:21.310Z,99.99
2023-05-15T05:38:21.577Z,99.99
2023-05-15T05:39:21.188Z,99.99
2023-05-15T05:40:21.393Z,99.99
2023-05-15T05:41:21.094Z,99.99
2023-05-15T05:42:21.042Z,99.99
2023-05-15T05:43:20.993Z,99.99
2023-05-15T05:44:21.219Z,99.99
2023-05-15T05:45:20.915Z,99.99
2023-05-15T05:46:21.109Z,99.99
2023-05-15T05:47:20.849Z,99.99
2023-05-15T05:48:20.787Z,99.99
2023-05-15T05:49:20.908Z,99.99
2023-05-15T05:50:20.844Z,99.99
2023-05-15T05:51:20.682Z,99.33
2023-05-15T05:52:21.073Z,99.99
2023-05-15T05:53:20.558Z,98.95
2023-05-15T05:54:20.671Z,97.99
2023-05-15T05:55:20.587Z,98.24
2023-05-15T05:56:20.687Z,97.99
2023-05-15T05:57:20.390Z,98.24
2023-05-15T05:58:25.672Z,98.04
2023-05-15T05:59:20.505Z,97.18
2023-05-15T06:03:47.651Z,94.79
2023-05-15T06:04:47.386Z,94.50
2023-05-15T06:05:47.068Z,95.07
2023-05-15T06:06:47.185Z,94.89
2023-05-15T06:07:47.103Z,95.56
2023-05-15T06:08:47.215Z,95.84
2023-05-15T06:09:47.051Z,95.65
2023-05-15T06:10:46.840Z,96.51
2023-05-15T06:11:46.793Z,94.74
2023-05-15T06:12:47.120Z,93.21
2023-05-15T06:13:46.715Z,94.07
2023-05-15T06:14:46.831Z,93.93
2023-05-15T06:15:46.629Z,93.69
2023-05-15T06:16:46.864Z,94.17
2023-05-15T06:17:46.591Z,92.54
2023-05-15T06:18:46.725Z,92.06
2023-05-15T06:19:46.746Z,92.21
2023-05-15T06:20:46.670Z,92.16
2023-05-15T06:21:46.478Z,92.35
2023-05-15T06:22:46.315Z,90.86
2023-05-15T06:23:46.486Z,90.19
2023-05-15T06:24:46.228Z,89.90
2023-05-15T06:25:46.299Z,88.95
2023-05-15T06:26:46.357Z,89.90
2023-05-15T06:27:46.096Z,89.14
2023-05-15T06:28:47.344Z,89.72
2023-05-15T06:29:46.137Z,89.62
2023-05-15T06:30:46.381Z,89.90
2023-05-15T06:31:45.935Z,89.81
2023-05-15T06:32:45.949Z,88.66
2023-05-15T06:33:45.844Z,89.52
2023-05-15T06:34:45.980Z,90.39
2023-05-15T06:35:45.782Z,90.09
2023-05-15T06:36:46.115Z,89.43
2023-05-15T06:37:45.843Z,88.85
2023-05-15T06:38:45.633Z,89.37
2023-05-15T06:39:45.591Z,89.09
2023-05-15T06:40:45.802Z,89.47
2023-05-15T06:41:45.563Z,88.70
2023-05-15T06:42:45.561Z,89.47
2023-05-15T06:43:45.431Z,86.88
2023-05-15T06:44:45.371Z,86.50
2023-05-15T06:45:45.554Z,86.50
2023-05-15T06:46:45.397Z,87.55
2023-05-15T06:47:45.700Z,87.94
2023-05-15T06:48:45.262Z,88.03
2023-05-15T06:49:45.161Z,87.46
2023-05-15T06:50:45.138Z,86.31
2023-05-15T06:51:45.276Z,87.13
2023-05-15T06:52:45.031Z,87.70
2023-05-15T06:53:45.484Z,87.23
2023-05-15T06:54:44.947Z,85.98
2023-05-15T06:55:44.909Z,87.32
2023-05-15T06:56:44.857Z,87.23
2023-05-15T06:57:45.115Z,88.18
2023-05-15T06:58:44.799Z,89.14
2023-05-15T06:59:45.114Z,88.18
2023-05-15T07:00:44.697Z,87.99
2023-05-15T07:01:44.682Z,88.18
2023-05-15T07:02:44.763Z,88.18
2023-05-15T07:03:44.559Z,88.66
2023-05-15T07:04:44.972Z,89.14
2023-05-15T07:05:44.562Z,87.99
2023-05-15T07:06:44.431Z,88.13
2023-05-15T07:07:44.380Z,87.37
2023-05-15T07:08:44.592Z,87.08
2023-05-15T07:09:44.313Z,87.17
2023-05-15T07:10:45.411Z,86.50
2023-05-15T07:11:44.437Z,86.50
2023-05-15T07:12:44.170Z,86.60
2023-05-15T07:13:44.402Z,84.72
2023-05-15T07:14:44.084Z,84.44
2023-05-15T07:15:44.218Z,82.62
2023-05-15T07:16:44.055Z,82.62
2023-05-15T07:17:44.024Z,82.71
2023-05-15T07:18:44.145Z,81.89
2023-05-15T07:19:44.242Z,81.02
2023-05-15T07:20:43.829Z,80.45
2023-05-15T07:21:45.073Z,80.35
2023-05-15T07:22:54.870Z,78.63
2023-05-15T07:23:43.708Z,77.29
2023-05-15T07:24:43.867Z,78.86
2023-05-15T07:25:44.728Z,79.44
2023-05-15T07:27:43.570Z,77.13
2023-05-15T07:28:43.694Z,77.56
2023-05-15T07:29:43.454Z,76.31
2023-05-15T07:30:43.922Z,75.92
2023-05-15T07:31:43.382Z,75.54
2023-05-15T07:32:43.556Z,75.54
2023-05-15T07:33:43.288Z,75.82
2023-05-15T07:34:43.250Z,76.21
2023-05-15T07:35:43.227Z,74.90
2023-05-15T07:36:43.344Z,74.43
2023-05-15T07:37:43.182Z,74.23
2023-05-15T07:38:44.392Z,73.37
2023-05-15T07:39:43.065Z,72.41
2023-05-15T07:40:45.162Z,72.95
2023-05-15T07:41:43.082Z,73.62
2023-05-15T07:42:42.919Z,73.33
2023-05-15T07:43:43.158Z,73.24
2023-05-15T07:44:44.957Z,73.91
2023-05-15T07:45:42.941Z,73.52
2023-05-15T07:46:43.091Z,74.01
2023-05-15T07:47:43.150Z,74.58
2023-05-15T07:48:42.701Z,74.29
2023-05-15T07:49:42.784Z,75.25
2023-05-15T07:50:42.777Z,74.58
2023-05-15T07:51:42.550Z,74.96
2023-05-15T07:52:42.500Z,74.77
2023-05-15T07:53:42.547Z,73.91
2023-05-15T07:54:42.431Z,74.01
2023-05-15T07:55:42.560Z,74.39
2023-05-15T07:56:42.415Z,76.02
2023-05-15T07:57:42.386Z,75.92
2023-05-15T07:58:42.253Z,75.73
2023-05-15T07:59:42.377Z,75.92
2023-05-15T08:00:42.176Z,75.92
2023-05-15T08:01:42.196Z,75.54
2023-05-15T08:02:43.509Z,74.68
2023-05-15T08:03:42.145Z,74.77
2023-05-15T08:04:42.256Z,73.91
2023-05-15T08:05:42.396Z,74.96
2023-05-15T08:06:42.799Z,75.25
2023-05-15T08:07:42.113Z,75.15
2023-05-15T08:08:41.861Z,75.00
2023-05-15T08:09:42.878Z,74.71
2023-05-15T08:10:49.879Z,73.98
2023-05-15T08:11:41.753Z,73.02
2023-05-15T08:13:02.805Z,72.44
2023-05-15T08:13:41.714Z,72.16
2023-05-15T08:14:41.707Z,71.33
2023-05-15T08:15:41.554Z,70.84
2023-05-15T08:16:42.720Z,70.27
2023-05-15T08:17:41.545Z,69.40
2023-05-15T08:18:41.579Z,69.15
2023-05-15T08:19:41.712Z,68.38
2023-05-15T08:20:41.371Z,68.57
2023-05-15T08:21:41.552Z,68.57
2023-05-15T08:22:41.289Z,68.19
2023-05-15T08:23:41.372Z,67.51
2023-05-15T08:24:41.395Z,68.48
2023-05-15T08:25:41.147Z,67.51
2023-05-15T08:26:42.174Z,67.07
2023-05-15T08:27:41.062Z,67.80
2023-05-15T08:28:41.174Z,67.55
2023-05-15T08:29:41.013Z,67.83
2023-05-15T08:30:41.034Z,66.49
2023-05-15T08:31:41.005Z,65.53
2023-05-15T08:32:41.026Z,65.72
2023-05-15T08:33:40.819Z,65.63
2023-05-15T08:34:41.015Z,65.81
2023-05-15T08:35:40.850Z,65.63
2023-05-15T08:36:40.722Z,65.05
2023-05-15T08:37:41.024Z,65.43
2023-05-15T08:38:40.680Z,65.05
2023-05-15T08:39:41.871Z,65.33
2023-05-15T08:40:40.749Z,64.89
2023-05-15T08:41:41.108Z,63.54
2023-05-15T08:42:40.466Z,64.08
2023-05-15T08:43:40.681Z,64.56
2023-05-15T08:44:40.524Z,63.70
2023-05-15T08:45:40.473Z,64.76
2023-05-15T08:46:40.355Z,65.05
2023-05-15T08:47:40.310Z,64.69
2023-05-15T08:48:40.393Z,64.89
2023-05-15T08:49:41.927Z,64.50
2023-05-15T08:50:41.328Z,63.92
2023-05-15T08:51:40.197Z,64.59
2023-05-15T08:52:40.109Z,63.25
2023-05-15T08:53:40.026Z,62.96
2023-05-15T08:54:40.129Z,63.25
2023-05-15T08:55:39.942Z,64.02
2023-05-15T08:56:40.142Z,62.87
2023-05-15T08:57:39.873Z,62.77
2023-05-15T08:58:39.825Z,63.95
2023-05-15T08:59:39.959Z,62.70
2023-05-15T09:00:39.746Z,62.48
2023-05-15T09:01:39.820Z,63.15
2023-05-15T09:02:39.869Z,62.57
2023-05-15T09:03:39.912Z,62.96
2023-05-15T09:04:39.600Z,63.25
2023-05-15T09:05:40.627Z,62.67
2023-05-15T09:06:39.517Z,62.19
2023-05-15T09:07:39.931Z,62.48
2023-05-15T09:08:39.442Z,62.19
2023-05-15T09:09:39.390Z,62.87
2023-05-15T09:10:39.368Z,62.80
2023-05-15T09:11:39.435Z,62.90
2023-05-15T09:12:39.272Z,61.68
2023-05-15T09:13:39.448Z,61.38
2023-05-15T09:14:39.194Z,60.90
2023-05-15T09:15:39.147Z,59.87
2023-05-15T09:16:39.422Z,58.72
2023-05-15T09:17:39.084Z,58.17
2023-05-15T09:18:39.176Z,57.65
2023-05-15T09:19:39.145Z,57.68
2023-05-15T09:20:38.959Z,58.17
2023-05-15T09:21:38.968Z,58.68
2023-05-15T09:22:39.125Z,56.68
2023-05-15T09:23:38.836Z,56.41
2023-05-15T09:24:38.925Z,54.90
2023-05-15T09:25:38.764Z,54.51
2023-05-15T09:26:38.723Z,53.99
2023-05-15T09:27:38.952Z,52.56
2023-05-15T09:28:38.656Z,51.01
2023-05-15T09:29:38.756Z,50.07
2023-05-15T09:30:38.583Z,50.07
2023-05-15T09:31:38.596Z,49.19
2023-05-15T09:32:38.530Z,49.17
2023-05-15T09:33:38.572Z,49.95
2023-05-15T09:34:38.433Z,49.95
2023-05-15T09:35:38.604Z,50.92
2023-05-15T09:36:38.405Z,50.92
2023-05-15T09:37:38.315Z,50.21
2023-05-15T09:38:38.611Z,50.79
2023-05-15T09:39:38.259Z,50.60
2023-05-15T09:40:38.430Z,50.96
2023-05-15T09:41:38.219Z,52.19
2023-05-15T09:42:38.226Z,51.81
2023-05-15T09:43:38.103Z,52.39
2023-05-15T09:44:38.244Z,52.65
2023-05-15T09:45:38.062Z,53.23
2023-05-15T09:46:38.108Z,53.69
2023-05-15T09:47:38.098Z,53.88
2023-05-15T09:48:38.197Z,54.07
2023-05-15T09:49:37.866Z,54.19
2023-05-15T09:50:38.120Z,53.81
2023-05-15T09:51:37.790Z,53.71
2023-05-15T09:52:37.910Z,53.61
2023-05-15T09:53:37.724Z,54.00
2023-05-15T09:54:37.970Z,54.03
2023-05-15T09:55:37.713Z,54.15
2023-05-15T09:56:37.599Z,53.23
2023-05-15T09:57:37.742Z,51.93
2023-05-15T09:58:37.532Z,50.14
2023-05-15T09:59:37.488Z,47.98
2023-05-15T10:00:48.378Z,46.59
2023-05-15T10:01:37.447Z,43.70
2023-05-15T10:02:37.567Z,42.02
2023-05-15T10:03:37.412Z,42.41
2023-05-15T10:04:37.372Z,42.29
2023-05-15T10:05:43.785Z,42.66
2023-05-15T10:06:37.795Z,43.32
2023-05-15T10:07:38.080Z,43.78
2023-05-15T10:08:37.394Z,44.24
2023-05-15T10:09:37.139Z,44.61
2023-05-15T10:10:37.107Z,45.10
2023-05-15T10:11:37.066Z,46.24
2023-05-15T10:12:37.216Z,47.09
2023-05-15T10:13:36.990Z,47.47
2023-05-15T10:14:37.105Z,47.74
2023-05-15T10:15:36.918Z,48.03
2023-05-15T10:16:37.077Z,48.81
2023-05-15T10:17:36.933Z,49.27
2023-05-15T10:18:37.079Z,49.75
2023-05-15T10:19:44.063Z,49.17
2023-05-15T10:20:36.739Z,49.58
2023-05-15T10:21:36.699Z,50.26
2023-05-15T10:22:36.938Z,48.27
2023-05-15T10:23:36.701Z,46.65
2023-05-15T10:24:36.632Z,45.53
2023-05-15T10:25:36.712Z,44.14
2023-05-15T10:26:36.596Z,42.99
2023-05-15T10:27:36.484Z,42.25
2023-05-15T10:28:36.583Z,41.40
2023-05-15T10:29:36.528Z,40.08
2023-05-15T10:30:36.418Z,39.02
2023-05-15T10:31:36.922Z,37.65
2023-05-15T10:32:36.361Z,37.63
2023-05-15T10:33:36.357Z,37.81
2023-05-15T10:34:36.237Z,38.67
2023-05-15T10:35:36.468Z,38.26
2023-05-15T10:36:36.200Z,38.54
2023-05-15T10:37:36.387Z,39.49
2023-05-15T10:38:36.192Z,40.54
2023-05-15T10:39:36.083Z,41.78
2023-05-15T10:40:36.211Z,42.44
2023-05-15T10:41:36.007Z,42.91
2023-05-15T10:42:36.238Z,43.68
2023-05-15T10:43:36.097Z,45.12
2023-05-15T10:44:35.924Z,45.10
2023-05-15T10:45:36.033Z,44.13
2023-05-15T10:46:35.868Z,44.59
2023-05-15T10:47:36.113Z,46.04
2023-05-15T10:48:35.802Z,48.25
2023-05-15T10:49:35.745Z,50.35
2023-05-15T10:50:35.684Z,52.75
2023-05-15T10:51:35.894Z,54.17
2023-05-15T10:52:35.626Z,55.99
2023-05-15T10:53:35.684Z,58.09
2023-05-15T10:54:35.739Z,60.96
2023-05-15T10:55:35.497Z,62.37
2023-05-15T10:56:35.700Z,63.89
2023-05-15T10:57:35.426Z,65.82
2023-05-15T10:58:36.536Z,66.56
2023-05-15T10:59:35.387Z,67.20
2023-05-15T11:00:35.310Z,69.29
2023-05-15T11:01:35.526Z,70.35
2023-05-15T11:02:36.401Z,71.18
2023-05-15T11:03:47.552Z,73.36
2023-05-15T11:04:35.234Z,75.57
2023-05-15T11:05:35.358Z,77.36
2023-05-15T11:06:43.996Z,78.90
2023-05-15T11:07:43.516Z,80.02
2023-05-15T11:08:58.124Z,81.37
2023-05-15T11:09:34.960Z,81.71
2023-05-15T11:10:34.915Z,82.29
2023-05-15T11:11:35.000Z,83.40
2023-05-15T11:12:34.895Z,84.17
2023-05-15T11:13:42.539Z,85.47
2023-05-15T11:14:35.127Z,87.58
2023-05-15T11:15:34.715Z,88.64
2023-05-15T11:16:34.861Z,89.50
2023-05-15T11:17:34.676Z,89.98
2023-05-15T11:18:34.663Z,90.17
2023-05-15T11:19:34.670Z,89.93
2023-05-15T11:20:35.245Z,89.45
2023-05-15T11:21:34.667Z,87.72
2023-05-15T11:22:34.434Z,87.29
2023-05-15T11:23:34.466Z,86.90
2023-05-15T11:24:34.541Z,86.41
2023-05-15T11:25:34.496Z,82.46
2023-05-15T11:26:34.274Z,80.19
2023-05-15T11:27:34.506Z,79.23
2023-05-15T11:28:34.302Z,78.79
2023-05-15T11:29:34.149Z,77.58
2023-05-15T11:30:34.146Z,76.13
2023-05-15T11:31:34.352Z,74.40
2023-05-15T11:32:34.065Z,73.27
2023-05-15T11:33:34.137Z,72.12
2023-05-15T11:34:33.974Z,71.15
2023-05-15T11:35:34.139Z,68.10
2023-05-15T11:36:35.698Z,68.59
2023-05-15T11:37:33.964Z,68.23
2023-05-15T11:38:33.806Z,66.69
2023-05-15T11:39:33.778Z,66.01
2023-05-15T11:40:33.739Z,65.91
2023-05-15T11:41:33.776Z,66.30
2023-05-15T11:42:34.078Z,64.86
2023-05-15T11:43:34.010Z,64.08
2023-05-15T11:44:33.592Z,63.95
2023-05-15T11:45:33.570Z,63.95
2023-05-15T11:46:33.657Z,64.43
2023-05-15T11:47:33.515Z,63.37
2023-05-15T11:48:33.828Z,63.09
2023-05-15T11:49:33.399Z,63.85
2023-05-15T11:50:33.380Z,63.85
2023-05-15T11:51:33.374Z,63.95
2023-05-15T11:52:33.473Z,64.69
2023-05-15T11:53:33.322Z,63.73
2023-05-15T11:54:33.473Z,63.44
2023-05-15T11:55:33.170Z,64.89
2023-05-15T11:56:33.139Z,66.88
2023-05-15T11:57:33.499Z,66.59
2023-05-15T11:58:33.056Z,66.78
2023-05-15T11:59:33.300Z,66.52
2023-05-15T12:00:32.981Z,67.55
2023-05-15T12:01:33.090Z,67.46
2023-05-15T12:02:32.997Z,68.90
2023-05-15T12:03:33.180Z,67.94
2023-05-15T12:04:32.849Z,68.42
2023-05-15T12:05:32.957Z,67.13
2023-05-15T12:06:32.999Z,66.55
2023-05-15T12:07:32.710Z,66.36
2023-05-15T12:08:32.960Z,67.97
2023-05-15T12:09:32.638Z,65.85
2023-05-15T12:10:33.793Z,64.56
2023-05-15T12:11:32.562Z,64.76
2023-05-15T12:12:32.518Z,65.50
2023-05-15T12:13:32.640Z,65.56
2023-05-15T12:14:32.806Z,66.04
2023-05-15T12:15:32.405Z,67.29
2023-05-15T12:16:32.625Z,67.38
2023-05-15T12:17:32.333Z,67.38
2023-05-15T12:18:32.362Z,66.52
2023-05-15T12:19:32.294Z,67.10
2023-05-15T12:20:32.640Z,67.86
2023-05-15T12:21:32.162Z,67.45
2023-05-15T12:22:32.244Z,67.64
2023-05-15T12:23:32.079Z,68.31
2023-05-15T12:24:32.254Z,68.41
2023-05-15T12:25:32.025Z,70.10
2023-05-15T12:26:32.069Z,70.39
2023-05-15T12:27:31.910Z,72.47
2023-05-15T12:28:32.494Z,75.15
2023-05-15T12:29:31.845Z,77.26
2023-05-15T12:30:32.109Z,78.67
2023-05-15T12:31:31.774Z,79.72
2023-05-15T12:32:31.958Z,79.53
2023-05-15T12:33:31.977Z,80.49
2023-05-15T12:34:31.627Z,80.49
2023-05-15T12:35:31.641Z,80.68
2023-05-15T12:36:31.936Z,80.68
2023-05-15T12:37:31.531Z,81.07
2023-05-15T12:38:31.747Z,83.18
2023-05-15T12:39:31.422Z,80.78
2023-05-15T12:40:31.382Z,81.45
2023-05-15T12:41:31.589Z,82.51
2023-05-15T12:42:31.316Z,80.68
2023-05-15T12:43:31.414Z,79.91
2023-05-15T12:44:31.214Z,79.72
2023-05-15T12:45:31.166Z,79.14
2023-05-15T12:46:31.153Z,78.00
2023-05-15T12:47:31.312Z,78.38
2023-05-15T12:48:31.082Z,79.05
2023-05-15T12:49:31.211Z,78.28
2023-05-15T12:50:31.277Z,78.86
2023-05-15T12:51:30.922Z,79.72
2023-05-15T12:52:31.034Z,79.91
2023-05-15T12:53:30.863Z,79.67
2023-05-15T12:54:31.049Z,80.24
2023-05-15T12:55:30.763Z,80.15
2023-05-15T12:56:30.723Z,79.09
2023-05-15T12:57:30.689Z,78.42